sensor_id;sensor_type;location;lat;lon;timestamp;P1;durP1;ratioP1;P2;durP2;ratioP2
6505;SDS011;3286;49.858;8.768;2024-02-26T00:01:09;2.87;;;1.60;;
6505;SDS011;3286;49.858;8.768;2024-02-26T00:03:35;3.60;;;1.60;;
6505;SDS011;3286;49.858;8.768;2024-02-26T00:06:02;3.00;;;1.50;;
6505;SDS011;3286;49.858;8.768;2024-02-26T00:08:29;2.13;;;1.50;;
6505;SDS011;3286;49.858;8.768;2024-02-26T00:10:55;2.40;;;1.47;;
6505;SDS011;3286;49.858;8.768;2024-02-26T00:13:23;1.30;;;1.20;;
6505;SDS011;3286;49.858;8.768;2024-02-26T00:15:50;1.70;;;1.30;;
6505;SDS011;3286;49.858;8.768;2024-02-26T00:18:16;2.27;;;1.60;;
6505;SDS011;3286;49.858;8.768;2024-02-26T00:20:43;2.13;;;1.30;;
6505;SDS011;3286;49.858;8.768;2024-02-26T00:23:10;3.43;;;1.90;;
6505;SDS011;3286;49.858;8.768;2024-02-26T00:25:36;2.10;;;1.63;;
6505;SDS011;3286;49.858;8.768;2024-02-26T00:28:04;3.50;;;1.80;;
6505;SDS011;3286;49.858;8.768;2024-02-26T00:30:32;3.63;;;1.53;;
6505;SDS011;3286;49.858;8.768;2024-02-26T00:32:58;3.10;;;1.83;;
6505;SDS011;3286;49.858;8.768;2024-02-26T00:35:25;1.67;;;1.30;;
6505;SDS011;3286;49.858;8.768;2024-02-26T00:37:52;3.57;;;1.70;;
6505;SDS011;3286;49.858;8.768;2024-02-26T00:40:18;2.57;;;1.60;;
6505;SDS011;3286;49.858;8.768;2024-02-26T00:42:45;2.80;;;1.73;;
6505;SDS011;3286;49.858;8.768;2024-02-26T00:45:12;2.67;;;1.70;;
6505;SDS011;3286;49.858;8.768;2024-02-26T00:47:42;2.93;;;1.70;;
6505;SDS011;3286;49.858;8.768;2024-02-26T00:50:10;1.60;;;1.43;;
6505;SDS011;3286;49.858;8.768;2024-02-26T00:52:36;2.10;;;1.30;;
6505;SDS011;3286;49.858;8.768;2024-02-26T00:55:03;3.10;;;1.30;;
6505;SDS011;3286;49.858;8.768;2024-02-26T00:57:31;1.70;;;1.50;;
6505;SDS011;3286;49.858;8.768;2024-02-26T00:59:57;2.17;;;1.40;;
6505;SDS011;3286;49.858;8.768;2024-02-26T01:02:25;1.40;;;1.30;;
6505;SDS011;3286;49.858;8.768;2024-02-26T01:04:54;4.77;;;1.33;;
6505;SDS011;3286;49.858;8.768;2024-02-26T01:07:20;1.43;;;1.13;;
6505;SDS011;3286;49.858;8.768;2024-02-26T01:09:47;2.40;;;1.60;;
6505;SDS011;3286;49.858;8.768;2024-02-26T01:12:13;1.77;;;1.30;;
6505;SDS011;3286;49.858;8.768;2024-02-26T01:14:40;1.37;;;1.27;;
6505;SDS011;3286;49.858;8.768;2024-02-26T01:17:07;1.30;;;1.10;;
6505;SDS011;3286;49.858;8.768;2024-02-26T01:19:34;2.03;;;1.20;;
6505;SDS011;3286;49.858;8.768;2024-02-26T01:22:02;1.30;;;1.20;;
6505;SDS011;3286;49.858;8.768;2024-02-26T01:24:29;2.30;;;1.33;;
6505;SDS011;3286;49.858;8.768;2024-02-26T01:26:55;1.80;;;1.30;;
6505;SDS011;3286;49.858;8.768;2024-02-26T01:29:22;1.37;;;1.20;;
6505;SDS011;3286;49.858;8.768;2024-02-26T01:31:49;3.47;;;1.40;;
6505;SDS011;3286;49.858;8.768;2024-02-26T01:34:15;1.30;;;1.20;;
6505;SDS011;3286;49.858;8.768;2024-02-26T01:36:43;1.93;;;1.00;;
6505;SDS011;3286;49.858;8.768;2024-02-26T01:39:11;1.73;;;1.17;;
6505;SDS011;3286;49.858;8.768;2024-02-26T01:41:38;1.30;;;1.20;;
6505;SDS011;3286;49.858;8.768;2024-02-26T01:44:05;4.17;;;1.30;;
6505;SDS011;3286;49.858;8.768;2024-02-26T01:46:32;2.10;;;1.10;;
6505;SDS011;3286;49.858;8.768;2024-02-26T01:49:00;2.07;;;1.20;;
6505;SDS011;3286;49.858;8.768;2024-02-26T01:51:28;1.63;;;1.20;;
6505;SDS011;3286;49.858;8.768;2024-02-26T01:53:56;2.10;;;1.40;;
6505;SDS011;3286;49.858;8.768;2024-02-26T01:56:25;1.80;;;1.30;;
6505;SDS011;3286;49.858;8.768;2024-02-26T01:58:55;3.53;;;1.20;;
6505;SDS011;3286;49.858;8.768;2024-02-26T02:01:23;1.40;;;1.10;;
6505;SDS011;3286;49.858;8.768;2024-02-26T02:03:53;2.50;;;1.33;;
6505;SDS011;3286;49.858;8.768;2024-02-26T02:06:20;1.60;;;1.40;;
6505;SDS011;3286;49.858;8.768;2024-02-26T02:08:47;2.07;;;1.23;;
6505;SDS011;3286;49.858;8.768;2024-02-26T02:11:14;1.40;;;1.30;;
6505;SDS011;3286;49.858;8.768;2024-02-26T02:13:42;2.40;;;1.20;;
6505;SDS011;3286;49.858;8.768;2024-02-26T02:16:09;1.83;;;1.40;;
6505;SDS011;3286;49.858;8.768;2024-02-26T02:18:36;2.10;;;1.43;;
6505;SDS011;3286;49.858;8.768;2024-02-26T02:21:04;1.77;;;1.40;;
6505;SDS011;3286;49.858;8.768;2024-02-26T02:23:30;2.63;;;1.40;;
6505;SDS011;3286;49.858;8.768;2024-02-26T02:28:33;5.70;;;2.00;;
6505;SDS011;3286;49.858;8.768;2024-02-26T02:31:31;2.37;;;1.43;;
6505;SDS011;3286;49.858;8.768;2024-02-26T02:34:15;2.40;;;1.50;;
6505;SDS011;3286;49.858;8.768;2024-02-26T02:36:50;2.83;;;1.57;;
6505;SDS011;3286;49.858;8.768;2024-02-26T02:39:18;1.97;;;1.60;;
6505;SDS011;3286;49.858;8.768;2024-02-26T02:41:45;2.63;;;1.30;;
6505;SDS011;3286;49.858;8.768;2024-02-26T02:44:12;1.57;;;1.47;;
6505;SDS011;3286;49.858;8.768;2024-02-26T02:46:39;2.40;;;1.50;;
6505;SDS011;3286;49.858;8.768;2024-02-26T02:49:07;4.27;;;1.50;;
6505;SDS011;3286;49.858;8.768;2024-02-26T02:51:35;1.80;;;1.40;;
6505;SDS011;3286;49.858;8.768;2024-02-26T02:54:03;1.93;;;1.30;;
6505;SDS011;3286;49.858;8.768;2024-02-26T02:56:30;1.57;;;1.47;;
6505;SDS011;3286;49.858;8.768;2024-02-26T02:58:57;2.73;;;1.50;;
6505;SDS011;3286;49.858;8.768;2024-02-26T03:01:25;2.20;;;1.50;;
6505;SDS011;3286;49.858;8.768;2024-02-26T03:03:54;1.70;;;1.20;;
6505;SDS011;3286;49.858;8.768;2024-02-26T03:06:20;1.80;;;1.40;;
6505;SDS011;3286;49.858;8.768;2024-02-26T03:08:47;3.53;;;1.70;;
6505;SDS011;3286;49.858;8.768;2024-02-26T03:11:15;3.83;;;1.50;;
6505;SDS011;3286;49.858;8.768;2024-02-26T03:13:42;1.93;;;1.20;;
6505;SDS011;3286;49.858;8.768;2024-02-26T03:16:08;1.57;;;1.40;;
6505;SDS011;3286;49.858;8.768;2024-02-26T03:18:35;1.30;;;1.20;;
6505;SDS011;3286;49.858;8.768;2024-02-26T03:21:02;1.53;;;1.43;;
6505;SDS011;3286;49.858;8.768;2024-02-26T03:23:29;3.33;;;1.20;;
6505;SDS011;3286;49.858;8.768;2024-02-26T03:25:57;1.43;;;1.30;;
6505;SDS011;3286;49.858;8.768;2024-02-26T03:28:25;2.00;;;1.53;;
6505;SDS011;3286;49.858;8.768;2024-02-26T03:30:52;1.47;;;1.37;;
6505;SDS011;3286;49.858;8.768;2024-02-26T03:33:19;2.30;;;1.53;;
6505;SDS011;3286;49.858;8.768;2024-02-26T03:35:45;1.77;;;1.53;;
6505;SDS011;3286;49.858;8.768;2024-02-26T03:38:12;1.50;;;1.40;;
6505;SDS011;3286;49.858;8.768;2024-02-26T03:40:39;1.60;;;1.30;;
6505;SDS011;3286;49.858;8.768;2024-02-26T03:43:05;1.43;;;1.33;;
6505;SDS011;3286;49.858;8.768;2024-02-26T03:45:33;2.20;;;1.50;;
6505;SDS011;3286;49.858;8.768;2024-02-26T03:48:00;1.63;;;1.40;;
6505;SDS011;3286;49.858;8.768;2024-02-26T03:50:27;4.40;;;1.57;;
6505;SDS011;3286;49.858;8.768;2024-02-26T03:52:56;2.57;;;1.57;;
6505;SDS011;3286;49.858;8.768;2024-02-26T03:55:23;2.10;;;1.53;;
6505;SDS011;3286;49.858;8.768;2024-02-26T03:57:50;1.63;;;1.50;;
6505;SDS011;3286;49.858;8.768;2024-02-26T04:00:17;3.20;;;1.20;;
6505;SDS011;3286;49.858;8.768;2024-02-26T04:02:46;1.80;;;1.47;;
6505;SDS011;3286;49.858;8.768;2024-02-26T04:05:15;4.37;;;1.60;;
6505;SDS011;3286;49.858;8.768;2024-02-26T04:07:42;1.90;;;1.50;;
6505;SDS011;3286;49.858;8.768;2024-02-26T04:10:09;3.60;;;1.73;;
6505;SDS011;3286;49.858;8.768;2024-02-26T04:12:37;1.97;;;1.40;;
6505;SDS011;3286;49.858;8.768;2024-02-26T04:15:05;2.03;;;1.57;;
6505;SDS011;3286;49.858;8.768;2024-02-26T04:17:33;8.70;;;1.90;;
6505;SDS011;3286;49.858;8.768;2024-02-26T04:20:01;2.80;;;1.40;;
6505;SDS011;3286;49.858;8.768;2024-02-26T04:22:28;2.60;;;1.70;;
6505;SDS011;3286;49.858;8.768;2024-02-26T04:24:54;1.60;;;1.50;;
6505;SDS011;3286;49.858;8.768;2024-02-26T04:27:21;2.23;;;1.50;;
6505;SDS011;3286;49.858;8.768;2024-02-26T04:29:48;1.67;;;1.30;;
6505;SDS011;3286;49.858;8.768;2024-02-26T04:32:14;1.90;;;1.47;;
6505;SDS011;3286;49.858;8.768;2024-02-26T04:34:41;2.13;;;1.43;;
6505;SDS011;3286;49.858;8.768;2024-02-26T04:37:09;2.00;;;1.50;;
6505;SDS011;3286;49.858;8.768;2024-02-26T04:39:36;1.73;;;1.60;;
6505;SDS011;3286;49.858;8.768;2024-02-26T04:42:03;1.87;;;1.43;;
6505;SDS011;3286;49.858;8.768;2024-02-26T04:44:29;3.93;;;1.60;;
6505;SDS011;3286;49.858;8.768;2024-02-26T04:46:56;1.57;;;1.40;;
6505;SDS011;3286;49.858;8.768;2024-02-26T04:49:23;4.63;;;1.90;;
6505;SDS011;3286;49.858;8.768;2024-02-26T04:51:49;2.47;;;1.80;;
6505;SDS011;3286;49.858;8.768;2024-02-26T04:54:17;2.43;;;2.00;;
6505;SDS011;3286;49.858;8.768;2024-02-26T04:56:44;2.10;;;1.73;;
6505;SDS011;3286;49.858;8.768;2024-02-26T04:59:10;3.67;;;1.90;;
6505;SDS011;3286;49.858;8.768;2024-02-26T05:01:37;2.30;;;1.87;;
6505;SDS011;3286;49.858;8.768;2024-02-26T05:04:05;2.23;;;1.90;;
6505;SDS011;3286;49.858;8.768;2024-02-26T05:06:32;2.77;;;1.70;;
6505;SDS011;3286;49.858;8.768;2024-02-26T05:08:58;3.03;;;2.00;;
6505;SDS011;3286;49.858;8.768;2024-02-26T05:11:26;2.83;;;2.10;;
6505;SDS011;3286;49.858;8.768;2024-02-26T05:13:53;2.70;;;2.00;;
6505;SDS011;3286;49.858;8.768;2024-02-26T05:16:20;2.17;;;1.97;;
6505;SDS011;3286;49.858;8.768;2024-02-26T05:18:49;4.10;;;2.30;;
6505;SDS011;3286;49.858;8.768;2024-02-26T05:21:16;3.80;;;2.30;;
6505;SDS011;3286;49.858;8.768;2024-02-26T05:23:42;3.40;;;2.10;;
6505;SDS011;3286;49.858;8.768;2024-02-26T05:26:10;2.87;;;2.00;;
6505;SDS011;3286;49.858;8.768;2024-02-26T05:28:38;3.00;;;2.47;;
6505;SDS011;3286;49.858;8.768;2024-02-26T05:31:05;3.57;;;2.13;;
6505;SDS011;3286;49.858;8.768;2024-02-26T05:33:31;2.83;;;2.10;;
6505;SDS011;3286;49.858;8.768;2024-02-26T05:35:58;3.13;;;2.03;;
6505;SDS011;3286;49.858;8.768;2024-02-26T05:38:29;4.33;;;2.37;;
6505;SDS011;3286;49.858;8.768;2024-02-26T05:40:56;4.00;;;2.13;;
6505;SDS011;3286;49.858;8.768;2024-02-26T05:43:23;3.97;;;2.50;;
6505;SDS011;3286;49.858;8.768;2024-02-26T05:45:53;3.47;;;2.43;;
6505;SDS011;3286;49.858;8.768;2024-02-26T05:48:22;3.47;;;2.53;;
6505;SDS011;3286;49.858;8.768;2024-02-26T05:50:48;3.77;;;2.80;;
6505;SDS011;3286;49.858;8.768;2024-02-26T05:53:15;3.67;;;2.70;;
6505;SDS011;3286;49.858;8.768;2024-02-26T05:55:41;4.30;;;2.80;;
6505;SDS011;3286;49.858;8.768;2024-02-26T05:58:08;4.23;;;2.80;;
6505;SDS011;3286;49.858;8.768;2024-02-26T06:00:35;4.13;;;2.90;;
6505;SDS011;3286;49.858;8.768;2024-02-26T06:03:03;5.33;;;2.63;;
6505;SDS011;3286;49.858;8.768;2024-02-26T06:05:29;5.87;;;3.30;;
6505;SDS011;3286;49.858;8.768;2024-02-26T06:07:56;4.67;;;3.00;;
6505;SDS011;3286;49.858;8.768;2024-02-26T06:10:23;5.23;;;3.30;;
6505;SDS011;3286;49.858;8.768;2024-02-26T06:12:48;3.40;;;2.70;;
6505;SDS011;3286;49.858;8.768;2024-02-26T06:15:15;5.17;;;3.10;;
6505;SDS011;3286;49.858;8.768;2024-02-26T06:17:42;3.30;;;2.90;;
6505;SDS011;3286;49.858;8.768;2024-02-26T06:20:11;2.87;;;2.50;;
6505;SDS011;3286;49.858;8.768;2024-02-26T06:22:38;5.20;;;3.50;;
6505;SDS011;3286;49.858;8.768;2024-02-26T06:25:06;5.07;;;3.07;;
6505;SDS011;3286;49.858;8.768;2024-02-26T06:27:34;6.53;;;3.10;;
6505;SDS011;3286;49.858;8.768;2024-02-26T06:30:00;4.33;;;2.83;;
6505;SDS011;3286;49.858;8.768;2024-02-26T06:32:27;3.80;;;2.90;;
6505;SDS011;3286;49.858;8.768;2024-02-26T06:34:54;5.03;;;2.87;;
6505;SDS011;3286;49.858;8.768;2024-02-26T06:37:25;5.83;;;3.17;;
6505;SDS011;3286;49.858;8.768;2024-02-26T06:39:52;10.07;;;3.80;;
6505;SDS011;3286;49.858;8.768;2024-02-26T06:42:18;5.17;;;3.20;;
6505;SDS011;3286;49.858;8.768;2024-02-26T06:44:45;6.77;;;3.70;;
6505;SDS011;3286;49.858;8.768;2024-02-26T06:47:11;4.60;;;3.27;;
6505;SDS011;3286;49.858;8.768;2024-02-26T06:49:38;5.00;;;3.43;;
6505;SDS011;3286;49.858;8.768;2024-02-26T06:52:05;5.47;;;3.70;;
6505;SDS011;3286;49.858;8.768;2024-02-26T06:54:33;5.80;;;3.10;;
6505;SDS011;3286;49.858;8.768;2024-02-26T06:56:59;5.50;;;3.40;;
6505;SDS011;3286;49.858;8.768;2024-02-26T06:59:26;5.00;;;3.00;;
6505;SDS011;3286;49.858;8.768;2024-02-26T07:01:53;5.13;;;3.50;;
6505;SDS011;3286;49.858;8.768;2024-02-26T07:04:22;3.87;;;3.07;;
6505;SDS011;3286;49.858;8.768;2024-02-26T07:06:49;10.07;;;4.30;;
6505;SDS011;3286;49.858;8.768;2024-02-26T07:09:15;5.63;;;3.47;;
6505;SDS011;3286;49.858;8.768;2024-02-26T07:11:43;5.57;;;3.67;;
6505;SDS011;3286;49.858;8.768;2024-02-26T07:14:11;4.60;;;3.43;;
6505;SDS011;3286;49.858;8.768;2024-02-26T07:16:38;4.20;;;3.20;;
6505;SDS011;3286;49.858;8.768;2024-02-26T07:19:07;5.90;;;3.60;;
6505;SDS011;3286;49.858;8.768;2024-02-26T07:21:33;4.90;;;3.30;;
6505;SDS011;3286;49.858;8.768;2024-02-26T07:24:00;6.10;;;3.40;;
6505;SDS011;3286;49.858;8.768;2024-02-26T07:26:27;5.93;;;4.10;;
6505;SDS011;3286;49.858;8.768;2024-02-26T07:28:57;4.47;;;3.43;;
6505;SDS011;3286;49.858;8.768;2024-02-26T07:31:23;5.47;;;3.80;;
6505;SDS011;3286;49.858;8.768;2024-02-26T07:33:50;6.60;;;3.77;;
6505;SDS011;3286;49.858;8.768;2024-02-26T07:36:17;5.77;;;3.70;;
6505;SDS011;3286;49.858;8.768;2024-02-26T07:38:44;5.97;;;3.60;;
6505;SDS011;3286;49.858;8.768;2024-02-26T07:41:11;6.83;;;3.70;;
6505;SDS011;3286;49.858;8.768;2024-02-26T07:43:39;8.90;;;3.73;;
6505;SDS011;3286;49.858;8.768;2024-02-26T07:46:07;5.37;;;3.67;;
6505;SDS011;3286;49.858;8.768;2024-02-26T07:48:37;7.00;;;3.30;;
6505;SDS011;3286;49.858;8.768;2024-02-26T07:51:04;4.33;;;3.53;;
6505;SDS011;3286;49.858;8.768;2024-02-26T07:53:31;5.37;;;3.30;;
6505;SDS011;3286;49.858;8.768;2024-02-26T07:55:57;3.77;;;2.93;;
6505;SDS011;3286;49.858;8.768;2024-02-26T07:58:24;5.23;;;3.50;;
6505;SDS011;3286;49.858;8.768;2024-02-26T08:00:50;4.60;;;3.20;;
6505;SDS011;3286;49.858;8.768;2024-02-26T08:03:18;4.80;;;3.33;;
6505;SDS011;3286;49.858;8.768;2024-02-26T08:05:45;6.13;;;3.70;;
6505;SDS011;3286;49.858;8.768;2024-02-26T08:08:14;7.60;;;3.57;;
6505;SDS011;3286;49.858;8.768;2024-02-26T08:10:41;5.67;;;3.73;;
6505;SDS011;3286;49.858;8.768;2024-02-26T08:13:07;7.07;;;3.50;;
6505;SDS011;3286;49.858;8.768;2024-02-26T08:15:35;6.70;;;3.80;;
6505;SDS011;3286;49.858;8.768;2024-02-26T08:18:02;6.43;;;3.43;;
6505;SDS011;3286;49.858;8.768;2024-02-26T08:20:30;8.37;;;3.80;;
6505;SDS011;3286;49.858;8.768;2024-02-26T08:22:57;9.00;;;5.13;;
6505;SDS011;3286;49.858;8.768;2024-02-26T08:25:24;10.57;;;4.43;;
6505;SDS011;3286;49.858;8.768;2024-02-26T08:27:51;5.13;;;3.93;;
6505;SDS011;3286;49.858;8.768;2024-02-26T08:30:18;4.63;;;3.43;;
6505;SDS011;3286;49.858;8.768;2024-02-26T08:32:45;4.80;;;3.13;;
6505;SDS011;3286;49.858;8.768;2024-02-26T08:35:11;5.73;;;3.50;;
6505;SDS011;3286;49.858;8.768;2024-02-26T08:37:40;4.50;;;3.37;;
6505;SDS011;3286;49.858;8.768;2024-02-26T08:40:10;6.73;;;3.70;;
6505;SDS011;3286;49.858;8.768;2024-02-26T08:42:37;4.07;;;3.33;;
6505;SDS011;3286;49.858;8.768;2024-02-26T08:45:04;4.87;;;3.57;;
6505;SDS011;3286;49.858;8.768;2024-02-26T08:47:32;4.77;;;3.20;;
6505;SDS011;3286;49.858;8.768;2024-02-26T08:49:58;3.90;;;3.17;;
6505;SDS011;3286;49.858;8.768;2024-02-26T08:52:25;6.13;;;3.37;;
6505;SDS011;3286;49.858;8.768;2024-02-26T08:54:53;7.73;;;4.00;;
6505;SDS011;3286;49.858;8.768;2024-02-26T08:57:19;7.90;;;4.47;;
6505;SDS011;3286;49.858;8.768;2024-02-26T08:59:46;7.63;;;3.70;;
6505;SDS011;3286;49.858;8.768;2024-02-26T09:02:12;26.67;;;8.63;;
6505;SDS011;3286;49.858;8.768;2024-02-26T09:04:39;5.93;;;4.00;;
6505;SDS011;3286;49.858;8.768;2024-02-26T09:07:06;5.93;;;3.63;;
6505;SDS011;3286;49.858;8.768;2024-02-26T09:09:32;5.43;;;3.30;;
6505;SDS011;3286;49.858;8.768;2024-02-26T09:12:00;6.33;;;3.67;;
6505;SDS011;3286;49.858;8.768;2024-02-26T09:14:27;4.23;;;3.20;;
6505;SDS011;3286;49.858;8.768;2024-02-26T09:16:54;5.73;;;3.33;;
6505;SDS011;3286;49.858;8.768;2024-02-26T09:19:21;6.63;;;3.37;;
6505;SDS011;3286;49.858;8.768;2024-02-26T09:21:47;5.00;;;3.40;;
6505;SDS011;3286;49.858;8.768;2024-02-26T09:24:14;4.47;;;3.30;;
6505;SDS011;3286;49.858;8.768;2024-02-26T09:26:40;4.77;;;3.60;;
6505;SDS011;3286;49.858;8.768;2024-02-26T09:29:08;4.83;;;3.40;;
6505;SDS011;3286;49.858;8.768;2024-02-26T09:31:35;4.37;;;3.40;;
6505;SDS011;3286;49.858;8.768;2024-02-26T09:34:02;8.63;;;3.13;;
6505;SDS011;3286;49.858;8.768;2024-02-26T09:36:28;4.63;;;3.10;;
6505;SDS011;3286;49.858;8.768;2024-02-26T09:38:56;4.60;;;3.10;;
6505;SDS011;3286;49.858;8.768;2024-02-26T09:41:22;3.87;;;3.10;;
6505;SDS011;3286;49.858;8.768;2024-02-26T09:43:49;4.10;;;3.30;;
6505;SDS011;3286;49.858;8.768;2024-02-26T09:46:23;5.10;;;3.40;;
6505;SDS011;3286;49.858;8.768;2024-02-26T09:48:51;4.67;;;3.13;;
6505;SDS011;3286;49.858;8.768;2024-02-26T09:51:18;5.23;;;3.10;;
6505;SDS011;3286;49.858;8.768;2024-02-26T09:53:46;5.60;;;3.73;;
6505;SDS011;3286;49.858;8.768;2024-02-26T09:56:13;4.90;;;3.30;;
6505;SDS011;3286;49.858;8.768;2024-02-26T09:58:41;5.43;;;3.30;;
6505;SDS011;3286;49.858;8.768;2024-02-26T10:01:11;5.20;;;3.00;;
6505;SDS011;3286;49.858;8.768;2024-02-26T10:03:41;4.57;;;3.40;;
6505;SDS011;3286;49.858;8.768;2024-02-26T10:06:09;4.63;;;3.23;;
6505;SDS011;3286;49.858;8.768;2024-02-26T10:08:37;4.43;;;3.50;;
6505;SDS011;3286;49.858;8.768;2024-02-26T10:11:04;4.60;;;3.47;;
6505;SDS011;3286;49.858;8.768;2024-02-26T10:13:31;5.97;;;3.13;;
6505;SDS011;3286;49.858;8.768;2024-02-26T10:15:58;5.83;;;3.70;;
6505;SDS011;3286;49.858;8.768;2024-02-26T10:18:24;5.60;;;3.33;;
6505;SDS011;3286;49.858;8.768;2024-02-26T10:21:01;4.10;;;2.90;;
6505;SDS011;3286;49.858;8.768;2024-02-26T10:23:28;5.40;;;3.23;;
6505;SDS011;3286;49.858;8.768;2024-02-26T10:25:55;4.67;;;3.23;;
6505;SDS011;3286;49.858;8.768;2024-02-26T10:28:22;4.30;;;3.10;;
6505;SDS011;3286;49.858;8.768;2024-02-26T10:30:50;5.83;;;3.50;;
6505;SDS011;3286;49.858;8.768;2024-02-26T10:33:18;9.20;;;3.83;;
6505;SDS011;3286;49.858;8.768;2024-02-26T10:35:45;6.73;;;3.57;;
6505;SDS011;3286;49.858;8.768;2024-02-26T10:38:13;11.40;;;4.93;;
6505;SDS011;3286;49.858;8.768;2024-02-26T10:40:45;4.43;;;3.30;;
6505;SDS011;3286;49.858;8.768;2024-02-26T10:43:11;4.43;;;3.03;;
6505;SDS011;3286;49.858;8.768;2024-02-26T10:45:39;6.43;;;3.77;;
6505;SDS011;3286;49.858;8.768;2024-02-26T10:48:09;3.40;;;2.87;;
6505;SDS011;3286;49.858;8.768;2024-02-26T10:50:37;4.27;;;3.20;;
6505;SDS011;3286;49.858;8.768;2024-02-26T10:53:05;4.27;;;3.03;;
6505;SDS011;3286;49.858;8.768;2024-02-26T10:55:41;4.40;;;3.00;;
6505;SDS011;3286;49.858;8.768;2024-02-26T10:58:12;3.70;;;2.80;;
6505;SDS011;3286;49.858;8.768;2024-02-26T11:00:40;3.07;;;2.77;;
6505;SDS011;3286;49.858;8.768;2024-02-26T11:03:07;3.07;;;2.40;;
6505;SDS011;3286;49.858;8.768;2024-02-26T11:05:35;4.60;;;2.83;;
6505;SDS011;3286;49.858;8.768;2024-02-26T11:08:03;4.47;;;2.73;;
6505;SDS011;3286;49.858;8.768;2024-02-26T11:10:31;3.90;;;3.13;;
6505;SDS011;3286;49.858;8.768;2024-02-26T11:13:00;4.77;;;3.53;;
6505;SDS011;3286;49.858;8.768;2024-02-26T11:15:29;4.80;;;3.03;;
6505;SDS011;3286;49.858;8.768;2024-02-26T11:17:58;5.43;;;3.77;;
6505;SDS011;3286;49.858;8.768;2024-02-26T11:20:25;4.20;;;3.20;;
6505;SDS011;3286;49.858;8.768;2024-02-26T11:22:54;3.87;;;3.10;;
6505;SDS011;3286;49.858;8.768;2024-02-26T11:25:21;4.27;;;3.10;;
6505;SDS011;3286;49.858;8.768;2024-02-26T11:27:51;3.63;;;3.00;;
6505;SDS011;3286;49.858;8.768;2024-02-26T11:30:24;5.40;;;3.10;;
6505;SDS011;3286;49.858;8.768;2024-02-26T11:32:52;4.60;;;3.10;;
6505;SDS011;3286;49.858;8.768;2024-02-26T11:35:19;4.93;;;3.00;;
6505;SDS011;3286;49.858;8.768;2024-02-26T11:37:53;6.03;;;2.80;;
6505;SDS011;3286;49.858;8.768;2024-02-26T11:40:21;3.93;;;2.83;;
6505;SDS011;3286;49.858;8.768;2024-02-26T11:42:49;4.30;;;2.90;;
6505;SDS011;3286;49.858;8.768;2024-02-26T11:48:24;5.50;;;2.90;;
6505;SDS011;3286;49.858;8.768;2024-02-26T11:50:51;3.97;;;2.53;;
6505;SDS011;3286;49.858;8.768;2024-02-26T11:53:25;5.23;;;3.00;;
6505;SDS011;3286;49.858;8.768;2024-02-26T11:58:48;5.93;;;3.60;;
6505;SDS011;3286;49.858;8.768;2024-02-26T12:04:24;3.27;;;2.73;;
6505;SDS011;3286;49.858;8.768;2024-02-26T12:06:55;5.63;;;3.10;;
6505;SDS011;3286;49.858;8.768;2024-02-26T12:09:32;8.83;;;4.30;;
6505;SDS011;3286;49.858;8.768;2024-02-26T12:12:02;5.90;;;3.53;;
6505;SDS011;3286;49.858;8.768;2024-02-26T12:14:29;5.43;;;3.00;;
6505;SDS011;3286;49.858;8.768;2024-02-26T12:17:00;4.57;;;3.10;;
6505;SDS011;3286;49.858;8.768;2024-02-26T12:19:27;3.90;;;2.97;;
6505;SDS011;3286;49.858;8.768;2024-02-26T12:21:54;9.23;;;3.50;;
6505;SDS011;3286;49.858;8.768;2024-02-26T12:24:21;6.77;;;3.40;;
6505;SDS011;3286;49.858;8.768;2024-02-26T12:26:48;4.20;;;2.93;;
6505;SDS011;3286;49.858;8.768;2024-02-26T12:29:14;4.80;;;3.20;;
6505;SDS011;3286;49.858;8.768;2024-02-26T12:31:41;4.00;;;3.27;;
6505;SDS011;3286;49.858;8.768;2024-02-26T12:34:10;5.73;;;3.13;;
6505;SDS011;3286;49.858;8.768;2024-02-26T12:36:37;4.13;;;2.80;;
6505;SDS011;3286;49.858;8.768;2024-02-26T12:39:05;4.47;;;3.40;;
6505;SDS011;3286;49.858;8.768;2024-02-26T12:41:32;7.20;;;3.70;;
6505;SDS011;3286;49.858;8.768;2024-02-26T12:43:59;9.07;;;5.47;;
6505;SDS011;3286;49.858;8.768;2024-02-26T12:46:26;4.47;;;3.80;;
6505;SDS011;3286;49.858;8.768;2024-02-26T12:48:55;4.77;;;3.23;;
6505;SDS011;3286;49.858;8.768;2024-02-26T12:51:25;5.13;;;3.37;;
6505;SDS011;3286;49.858;8.768;2024-02-26T12:53:52;4.63;;;2.97;;
6505;SDS011;3286;49.858;8.768;2024-02-26T12:56:20;7.20;;;4.20;;
6505;SDS011;3286;49.858;8.768;2024-02-26T12:58:48;6.33;;;4.60;;
6505;SDS011;3286;49.858;8.768;2024-02-26T13:01:18;4.83;;;3.37;;
6505;SDS011;3286;49.858;8.768;2024-02-26T13:03:48;6.03;;;3.93;;
6505;SDS011;3286;49.858;8.768;2024-02-26T13:06:15;6.57;;;4.43;;
6505;SDS011;3286;49.858;8.768;2024-02-26T13:08:44;7.03;;;4.70;;
6505;SDS011;3286;49.858;8.768;2024-02-26T13:11:11;5.97;;;3.70;;
6505;SDS011;3286;49.858;8.768;2024-02-26T13:13:37;5.00;;;3.30;;
6505;SDS011;3286;49.858;8.768;2024-02-26T13:16:05;4.63;;;3.50;;
6505;SDS011;3286;49.858;8.768;2024-02-26T13:18:33;5.53;;;3.27;;
6505;SDS011;3286;49.858;8.768;2024-02-26T13:21:07;4.17;;;3.20;;
6505;SDS011;3286;49.858;8.768;2024-02-26T13:23:35;8.57;;;4.53;;
6505;SDS011;3286;49.858;8.768;2024-02-26T13:26:03;5.40;;;3.70;;
6505;SDS011;3286;49.858;8.768;2024-02-26T13:28:30;5.20;;;3.40;;
6505;SDS011;3286;49.858;8.768;2024-02-26T13:30:57;5.33;;;3.20;;
6505;SDS011;3286;49.858;8.768;2024-02-26T13:33:25;4.83;;;3.20;;
6505;SDS011;3286;49.858;8.768;2024-02-26T13:35:53;5.43;;;3.70;;
6505;SDS011;3286;49.858;8.768;2024-02-26T13:38:21;5.83;;;3.47;;
6505;SDS011;3286;49.858;8.768;2024-02-26T13:40:47;6.27;;;3.13;;
6505;SDS011;3286;49.858;8.768;2024-02-26T13:43:15;5.13;;;3.27;;
6505;SDS011;3286;49.858;8.768;2024-02-26T13:45:41;4.97;;;3.37;;
6505;SDS011;3286;49.858;8.768;2024-02-26T13:48:09;5.67;;;3.13;;
6505;SDS011;3286;49.858;8.768;2024-02-26T13:50:36;6.83;;;3.93;;
6505;SDS011;3286;49.858;8.768;2024-02-26T13:53:03;7.67;;;4.10;;
6505;SDS011;3286;49.858;8.768;2024-02-26T13:55:30;6.27;;;3.50;;
6505;SDS011;3286;49.858;8.768;2024-02-26T13:57:58;4.53;;;3.40;;
6505;SDS011;3286;49.858;8.768;2024-02-26T14:00:28;4.57;;;3.10;;
6505;SDS011;3286;49.858;8.768;2024-02-26T14:02:57;5.60;;;3.10;;
6505;SDS011;3286;49.858;8.768;2024-02-26T14:05:24;5.37;;;2.80;;
6505;SDS011;3286;49.858;8.768;2024-02-26T14:07:51;6.67;;;3.47;;
6505;SDS011;3286;49.858;8.768;2024-02-26T14:10:19;5.53;;;3.30;;
6505;SDS011;3286;49.858;8.768;2024-02-26T14:12:46;4.83;;;3.03;;
6505;SDS011;3286;49.858;8.768;2024-02-26T14:15:13;5.77;;;3.13;;
6505;SDS011;3286;49.858;8.768;2024-02-26T14:17:41;4.23;;;3.20;;
6505;SDS011;3286;49.858;8.768;2024-02-26T14:20:09;4.93;;;3.33;;
6505;SDS011;3286;49.858;8.768;2024-02-26T14:22:36;5.33;;;3.50;;
6505;SDS011;3286;49.858;8.768;2024-02-26T14:25:03;5.73;;;3.50;;
6505;SDS011;3286;49.858;8.768;2024-02-26T14:27:31;3.90;;;3.00;;
6505;SDS011;3286;49.858;8.768;2024-02-26T14:29:58;4.40;;;3.40;;
6505;SDS011;3286;49.858;8.768;2024-02-26T14:32:25;5.03;;;3.47;;
6505;SDS011;3286;49.858;8.768;2024-02-26T14:34:56;20.53;;;5.93;;
6505;SDS011;3286;49.858;8.768;2024-02-26T14:37:23;5.77;;;3.47;;
6505;SDS011;3286;49.858;8.768;2024-02-26T14:39:49;5.43;;;3.23;;
6505;SDS011;3286;49.858;8.768;2024-02-26T14:42:17;4.63;;;3.07;;
6505;SDS011;3286;49.858;8.768;2024-02-26T14:44:44;5.33;;;3.50;;
6505;SDS011;3286;49.858;8.768;2024-02-26T14:47:12;4.87;;;3.50;;
6505;SDS011;3286;49.858;8.768;2024-02-26T14:49:39;6.93;;;3.50;;
6505;SDS011;3286;49.858;8.768;2024-02-26T14:52:08;4.83;;;2.90;;
6505;SDS011;3286;49.858;8.768;2024-02-26T14:54:35;6.13;;;3.57;;
6505;SDS011;3286;49.858;8.768;2024-02-26T14:57:04;7.80;;;3.13;;
6505;SDS011;3286;49.858;8.768;2024-02-26T14:59:32;6.93;;;3.93;;
6505;SDS011;3286;49.858;8.768;2024-02-26T15:02:01;5.83;;;4.03;;
6505;SDS011;3286;49.858;8.768;2024-02-26T15:04:28;7.80;;;3.93;;
6505;SDS011;3286;49.858;8.768;2024-02-26T15:06:56;6.30;;;3.67;;
6505;SDS011;3286;49.858;8.768;2024-02-26T15:09:25;6.03;;;3.47;;
6505;SDS011;3286;49.858;8.768;2024-02-26T15:11:52;4.80;;;3.30;;
6505;SDS011;3286;49.858;8.768;2024-02-26T15:14:19;6.33;;;3.47;;
6505;SDS011;3286;49.858;8.768;2024-02-26T15:16:45;4.17;;;3.23;;
6505;SDS011;3286;49.858;8.768;2024-02-26T15:19:13;5.13;;;2.90;;
6505;SDS011;3286;49.858;8.768;2024-02-26T15:21:42;5.70;;;3.33;;
6505;SDS011;3286;49.858;8.768;2024-02-26T15:24:10;6.63;;;3.87;;
6505;SDS011;3286;49.858;8.768;2024-02-26T15:26:45;4.50;;;3.03;;
6505;SDS011;3286;49.858;8.768;2024-02-26T15:29:12;4.87;;;2.80;;